createdAt,value
2022-12-17T00:01:11.030Z,95.58
2022-12-17T00:03:57.243Z,95.95
2022-12-17T00:06:44.103Z,95.81
2022-12-17T00:09:30.289Z,95.84
2022-12-17T00:12:16.743Z,95.85
2022-12-17T00:15:02.708Z,96.16
2022-12-17T00:17:50.237Z,95.80
2022-12-17T00:20:36.552Z,95.79
2022-12-17T00:23:23.914Z,95.43
2022-12-17T00:26:10.481Z,95.84
2022-12-17T00:29:05.624Z,96.02
2022-12-17T00:31:51.288Z,95.93
2022-12-17T00:34:39.210Z,96.24
2022-12-17T00:37:25.255Z,95.79
2022-12-17T00:40:11.114Z,96.07
2022-12-17T00:42:56.822Z,95.59
2022-12-17T00:45:42.841Z,95.89
2022-12-17T00:48:28.956Z,95.98
2022-12-17T00:51:16.560Z,95.53
2022-12-17T00:54:02.807Z,96.09
2022-12-17T00:56:49.043Z,95.43
2022-12-17T00:59:35.185Z,95.57
2022-12-17T01:02:21.189Z,95.29
2022-12-17T01:05:07.617Z,95.40
2022-12-17T01:07:55.048Z,95.75
2022-12-17T01:10:42.066Z,95.17
2022-12-17T01:13:33.526Z,95.23
2022-12-17T01:16:23.516Z,95.40
2022-12-17T01:19:10.330Z,94.93
2022-12-17T01:21:56.519Z,94.54
2022-12-17T01:24:49.546Z,94.55
2022-12-17T01:27:35.243Z,94.52
2022-12-17T01:30:21.084Z,94.32
2022-12-17T01:33:21.354Z,94.29
2022-12-17T01:36:07.791Z,94.53
2022-12-17T01:38:53.819Z,94.49
2022-12-17T01:41:40.986Z,94.51
2022-12-17T01:44:44.515Z,94.68
2022-12-17T01:47:30.297Z,94.64
2022-12-17T01:50:16.606Z,95.00
2022-12-17T01:53:02.715Z,94.80
2022-12-17T01:55:48.440Z,94.85
2022-12-17T01:58:35.559Z,94.73
2022-12-17T02:01:21.519Z,94.88
2022-12-17T02:04:07.416Z,94.21
2022-12-17T02:07:06.135Z,94.42
2022-12-17T02:09:58.394Z,94.52
2022-12-17T02:12:49.124Z,94.90
2022-12-17T02:15:38.957Z,94.96
2022-12-17T02:18:27.288Z,94.34
2022-12-17T02:21:15.580Z,94.21
2022-12-17T02:24:09.323Z,94.83
2022-12-17T02:26:57.271Z,95.05
2022-12-17T02:29:45.651Z,94.97
2022-12-17T02:32:40.820Z,94.30
2022-12-17T02:35:31.665Z,94.34
2022-12-17T02:38:17.403Z,94.22
2022-12-17T02:41:04.601Z,94.57
2022-12-17T02:43:52.744Z,94.77
2022-12-17T02:46:39.342Z,94.73
2022-12-17T02:49:25.148Z,94.67
2022-12-17T02:52:12.744Z,94.57
2022-12-17T02:54:58.638Z,94.61
2022-12-17T02:57:46.504Z,94.54
2022-12-17T03:00:36.562Z,94.63
2022-12-17T03:03:21.856Z,94.31
2022-12-17T03:06:07.622Z,94.80
2022-12-17T03:08:53.281Z,94.82
2022-12-17T03:11:39.085Z,95.21
2022-12-17T03:14:25.475Z,95.07
2022-12-17T03:17:12.135Z,94.82
2022-12-17T03:19:57.937Z,94.51
2022-12-17T03:22:43.832Z,94.31
2022-12-17T03:25:29.777Z,94.03
2022-12-17T03:28:30.410Z,94.33
2022-12-17T03:31:16.704Z,94.24
2022-12-17T03:34:04.068Z,94.71
2022-12-17T03:36:50.308Z,94.89
2022-12-17T03:39:36.162Z,95.07
2022-12-17T03:42:22.324Z,95.42
2022-12-17T03:45:08.080Z,95.35
2022-12-17T03:48:05.359Z,94.93
2022-12-17T03:50:52.992Z,94.77
2022-12-17T03:53:38.990Z,94.06
2022-12-17T03:56:27.369Z,93.84
2022-12-17T03:59:13.074Z,93.50
2022-12-17T04:01:58.885Z,93.62
2022-12-17T04:04:44.890Z,93.77
2022-12-17T04:07:31.916Z,93.27
2022-12-17T04:10:17.863Z,93.46
2022-12-17T04:13:04.134Z,93.99
2022-12-17T04:15:50.090Z,93.37
2022-12-17T04:18:36.133Z,93.30
2022-12-17T04:21:21.567Z,93.50
2022-12-17T04:24:09.201Z,93.56
2022-12-17T04:26:55.122Z,93.22
2022-12-17T04:29:42.246Z,92.95
2022-12-17T04:32:32.296Z,92.26
2022-12-17T04:35:21.329Z,92.37
2022-12-17T04:38:07.207Z,93.11
2022-12-17T04:40:54.322Z,93.11
2022-12-17T04:43:40.115Z,93.28
2022-12-17T04:46:26.196Z,93.63
2022-12-17T04:49:12.287Z,93.70
2022-12-17T04:51:58.075Z,94.03
2022-12-17T04:54:43.817Z,93.63
2022-12-17T04:57:30.809Z,93.83
2022-12-17T05:00:16.630Z,93.21
2022-12-17T05:03:02.577Z,93.59
2022-12-17T05:05:48.744Z,94.07
2022-12-17T05:08:39.640Z,94.28
2022-12-17T05:11:27.265Z,94.25
2022-12-17T05:14:14.549Z,93.83
2022-12-17T05:17:00.504Z,93.83
2022-12-17T05:19:46.532Z,93.99
2022-12-17T05:22:32.576Z,94.00
2022-12-17T05:25:18.356Z,93.94
2022-12-17T05:28:04.747Z,93.71
2022-12-17T05:30:51.885Z,93.26
2022-12-17T05:33:38.447Z,92.99
2022-12-17T05:36:25.212Z,93.08
2022-12-17T05:39:11.590Z,93.31
2022-12-17T05:41:57.788Z,93.47
2022-12-17T05:44:46.947Z,93.27
2022-12-17T05:47:34.199Z,92.94
2022-12-17T05:50:20.024Z,93.00
2022-12-17T05:53:06.172Z,92.90
2022-12-17T05:55:52.606Z,92.86
2022-12-17T05:58:39.164Z,92.51
2022-12-17T06:01:25.893Z,92.39
2022-12-17T06:04:13.824Z,92.71
2022-12-17T06:06:59.959Z,92.42
2022-12-17T06:09:47.230Z,92.38
2022-12-17T06:12:33.674Z,92.18
2022-12-17T06:15:19.918Z,92.01
2022-12-17T06:18:16.480Z,92.09
2022-12-17T06:21:05.093Z,92.77
2022-12-17T06:23:51.143Z,92.50
2022-12-17T06:26:38.394Z,92.39
2022-12-17T06:29:25.776Z,91.93
2022-12-17T06:32:12.515Z,91.78
2022-12-17T06:34:58.737Z,91.79
2022-12-17T06:37:46.261Z,91.87
2022-12-17T06:40:32.901Z,91.79
2022-12-17T06:43:27.682Z,92.24
2022-12-17T06:46:14.344Z,92.08
2022-12-17T06:49:00.714Z,91.89
2022-12-17T06:51:55.605Z,91.68
2022-12-17T06:54:42.776Z,91.64
2022-12-17T06:57:28.733Z,91.64
2022-12-17T07:00:14.865Z,92.08
2022-12-17T07:03:00.972Z,90.81
2022-12-17T07:05:47.082Z,90.25
2022-12-17T07:08:32.813Z,90.73
2022-12-17T07:11:20.513Z,90.48
2022-12-17T07:14:02.980Z,90.31
2022-12-17T07:16:49.629Z,89.99
2022-12-17T07:19:35.779Z,90.32
2022-12-17T07:22:21.749Z,90.75
2022-12-17T07:25:08.417Z,90.49
2022-12-17T07:27:56.707Z,90.00
2022-12-17T07:30:44.562Z,90.37
2022-12-17T07:33:30.517Z,90.00
2022-12-17T07:36:17.327Z,90.52
2022-12-17T07:39:03.827Z,90.63
2022-12-17T07:41:50.135Z,90.45
2022-12-17T07:44:37.759Z,89.51
2022-12-17T07:47:23.769Z,89.69
2022-12-17T07:50:09.542Z,89.99
2022-12-17T07:52:55.435Z,89.88
2022-12-17T07:55:41.486Z,90.07
2022-12-17T07:58:29.240Z,90.40
2022-12-17T08:01:19.339Z,89.81
2022-12-17T08:04:05.764Z,89.93
2022-12-17T08:06:56.577Z,89.88
2022-12-17T08:09:46.024Z,89.27
2022-12-17T08:12:32.446Z,89.40
2022-12-17T08:15:18.669Z,89.24
2022-12-17T08:18:06.327Z,89.87
2022-12-17T08:20:53.023Z,89.74
2022-12-17T08:23:40.179Z,89.80
2022-12-17T08:26:26.405Z,90.00
2022-12-17T08:29:12.809Z,89.90
2022-12-17T08:31:58.845Z,89.75
2022-12-17T08:34:46.200Z,89.58
2022-12-17T08:37:35.994Z,89.26
2022-12-17T08:40:37.849Z,88.84
2022-12-17T08:43:29.840Z,88.44
2022-12-17T08:46:29.519Z,88.58
2022-12-17T08:49:17.122Z,88.66
2022-12-17T08:52:04.549Z,87.87
2022-12-17T08:54:57.096Z,88.26
2022-12-17T08:57:43.068Z,87.87
2022-12-17T09:00:32.457Z,88.61
2022-12-17T09:03:20.378Z,88.26
2022-12-17T09:06:07.382Z,88.50
2022-12-17T09:08:56.844Z,88.22
2022-12-17T09:11:44.511Z,87.38
2022-12-17T09:14:30.733Z,87.91
2022-12-17T09:17:19.122Z,87.36
2022-12-17T09:20:05.205Z,87.25
2022-12-17T09:22:52.711Z,87.83
2022-12-17T09:25:42.063Z,87.47
2022-12-17T09:28:29.963Z,87.60
2022-12-17T09:31:18.294Z,86.69
2022-12-17T09:34:06.111Z,86.45
2022-12-17T09:36:52.288Z,86.10
2022-12-17T09:39:40.172Z,86.08
2022-12-17T09:42:34.418Z,86.13
2022-12-17T09:45:26.700Z,85.78
2022-12-17T09:48:19.644Z,85.64
2022-12-17T09:51:10.341Z,85.52
2022-12-17T09:54:02.440Z,84.59
2022-12-17T09:56:51.868Z,84.57
2022-12-17T09:59:42.062Z,84.27
2022-12-17T10:02:32.130Z,83.82
2022-12-17T10:05:20.776Z,83.42
2022-12-17T10:08:09.272Z,83.51
2022-12-17T10:11:00.428Z,83.92
2022-12-17T10:13:48.992Z,83.30
2022-12-17T10:16:45.586Z,83.14
2022-12-17T10:19:35.440Z,82.54
2022-12-17T10:22:26.348Z,83.40
2022-12-17T10:25:12.097Z,83.64
2022-12-17T10:27:57.983Z,84.21
2022-12-17T10:30:44.852Z,83.52
2022-12-17T10:33:35.484Z,83.29
2022-12-17T10:36:21.936Z,82.02
2022-12-17T10:39:12.961Z,82.76
2022-12-17T10:41:59.987Z,81.97
2022-12-17T10:44:47.503Z,82.47
2022-12-17T10:47:36.371Z,82.39
2022-12-17T10:50:27.958Z,81.24
2022-12-17T10:53:14.275Z,80.69
2022-12-17T10:56:06.916Z,80.39
2022-12-17T10:59:00.879Z,80.70
2022-12-17T11:01:47.151Z,80.91
2022-12-17T11:04:41.910Z,80.85
2022-12-17T11:07:31.610Z,81.22
2022-12-17T11:10:19.677Z,80.77
2022-12-17T11:13:07.730Z,79.75
2022-12-17T11:15:56.336Z,79.10
2022-12-17T11:18:46.510Z,76.82
2022-12-17T11:21:38.526Z,75.54
2022-12-17T11:24:30.599Z,74.90
2022-12-17T11:27:17.373Z,73.13
2022-12-17T11:30:03.360Z,70.81
2022-12-17T11:33:01.085Z,66.08
2022-12-17T11:35:52.800Z,65.66
2022-12-17T11:38:46.407Z,64.55
2022-12-17T11:41:36.968Z,65.28
2022-12-17T11:44:28.698Z,65.28
2022-12-17T11:47:22.501Z,66.15
2022-12-17T11:50:14.935Z,67.87
2022-12-17T11:53:05.592Z,69.21
2022-12-17T11:55:54.935Z,69.91
2022-12-17T11:58:46.504Z,69.88
2022-12-17T12:01:38.511Z,69.54
2022-12-17T12:04:26.948Z,56.19
2022-12-17T12:07:18.657Z,44.83
2022-12-17T12:10:08.251Z,39.50
2022-12-17T12:13:00.054Z,37.12
2022-12-17T12:15:53.520Z,38.56
2022-12-17T12:18:44.592Z,46.48
2022-12-17T12:21:38.371Z,51.53
2022-12-17T12:24:30.516Z,56.04
2022-12-17T12:27:19.764Z,59.29
2022-12-17T12:30:09.968Z,60.63
2022-12-17T12:33:06.913Z,62.16
2022-12-17T12:35:56.504Z,62.33
2022-12-17T12:38:46.546Z,62.66
2022-12-17T12:41:37.880Z,63.07
2022-12-17T12:44:28.119Z,63.47
2022-12-17T12:47:17.552Z,65.03
2022-12-17T12:50:13.411Z,66.96
2022-12-17T12:53:01.980Z,68.01
2022-12-17T12:55:54.874Z,69.17
2022-12-17T12:58:45.455Z,68.15
2022-12-17T13:01:31.784Z,69.47
2022-12-17T13:04:19.606Z,70.14
2022-12-17T13:06:50.709Z,70.03
2022-12-17T13:09:21.781Z,70.41
2022-12-17T13:11:51.396Z,70.86
2022-12-17T13:14:21.178Z,71.06
2022-12-17T13:16:53.245Z,71.16
2022-12-17T13:19:33.137Z,71.52
2022-12-17T13:22:12.685Z,72.34
2022-12-17T13:24:41.557Z,72.68
2022-12-17T13:27:25.162Z,73.23
2022-12-17T13:29:54.013Z,72.58
2022-12-17T13:32:25.162Z,72.67
2022-12-17T13:34:59.970Z,73.49
2022-12-17T13:37:35.337Z,73.00
2022-12-17T13:40:14.190Z,73.38
2022-12-17T13:42:46.215Z,73.85
2022-12-17T13:45:16.419Z,73.73
2022-12-17T13:47:44.816Z,74.13
2022-12-17T13:50:36.818Z,74.11
2022-12-17T13:53:13.368Z,74.38
2022-12-17T13:55:42.193Z,74.63
2022-12-17T13:58:21.581Z,74.78
2022-12-17T14:00:50.187Z,75.02
2022-12-17T14:03:37.104Z,73.59
2022-12-17T14:06:12.636Z,70.45
2022-12-17T14:08:42.868Z,66.50
2022-12-17T14:11:30.118Z,68.46
2022-12-17T14:13:58.983Z,69.76
2022-12-17T14:16:27.601Z,70.80
2022-12-17T14:18:57.357Z,72.53
2022-12-17T14:21:26.262Z,73.64
2022-12-17T14:23:57.007Z,74.46
2022-12-17T14:26:25.718Z,74.84
2022-12-17T14:28:55.109Z,75.37
2022-12-17T14:31:27.112Z,75.86
2022-12-17T14:34:07.141Z,76.75
2022-12-17T14:36:36.642Z,77.32
2022-12-17T14:39:11.044Z,77.58
2022-12-17T14:41:57.155Z,78.21
2022-12-17T14:44:27.436Z,78.52
2022-12-17T14:47:08.824Z,78.75
2022-12-17T14:49:38.655Z,78.87
2022-12-17T14:52:13.147Z,79.10
2022-12-17T14:54:47.656Z,79.16
2022-12-17T14:57:20.757Z,80.01
2022-12-17T14:59:50.309Z,81.12
2022-12-17T15:02:23.623Z,80.90
2022-12-17T15:04:53.054Z,81.21
2022-12-17T15:07:24.127Z,81.57
2022-12-17T15:09:54.651Z,81.41
2022-12-17T15:12:24.128Z,82.03
2022-12-17T15:14:52.355Z,82.38
2022-12-17T15:17:20.796Z,82.20
2022-12-17T15:19:55.621Z,81.93
2022-12-17T15:22:24.671Z,81.71
2022-12-17T15:24:54.240Z,82.08
2022-12-17T15:27:22.511Z,82.94
2022-12-17T15:29:50.866Z,82.74
2022-12-17T15:32:19.817Z,82.71
2022-12-17T15:34:48.394Z,83.00
2022-12-17T15:37:19.825Z,83.24
2022-12-17T15:39:53.931Z,84.42
2022-12-17T15:42:40.023Z,84.62
2022-12-17T15:45:09.410Z,84.62
2022-12-17T15:47:37.829Z,84.87
2022-12-17T15:50:06.704Z,85.13
2022-12-17T15:52:34.973Z,85.73
2022-12-17T15:55:04.632Z,86.24
2022-12-17T15:57:33.182Z,86.02
2022-12-17T16:00:01.493Z,85.97
2022-12-17T16:02:30.101Z,86.00
2022-12-17T16:04:58.674Z,86.51
2022-12-17T16:07:27.124Z,87.01
2022-12-17T16:09:59.010Z,87.46
2022-12-17T16:12:33.005Z,87.49
2022-12-17T16:15:01.407Z,87.25
2022-12-17T16:17:29.896Z,87.10
2022-12-17T16:19:58.540Z,87.43
2022-12-17T16:22:27.340Z,87.62
2022-12-17T16:24:55.555Z,87.46
2022-12-17T16:27:23.928Z,87.46
2022-12-17T16:29:53.862Z,87.46
2022-12-17T16:32:22.359Z,87.62
2022-12-17T16:34:50.719Z,87.52
2022-12-17T16:37:19.166Z,87.62
2022-12-17T16:39:47.785Z,88.14
2022-12-17T16:42:16.368Z,88.60
2022-12-17T16:44:44.706Z,88.48
2022-12-17T16:47:14.478Z,88.77
2022-12-17T16:49:42.838Z,88.65
2022-12-17T16:52:11.573Z,88.77
2022-12-17T16:54:40.213Z,88.78
2022-12-17T16:57:08.556Z,88.91
2022-12-17T16:59:37.025Z,88.74
2022-12-17T17:02:05.456Z,88.62
2022-12-17T17:04:35.228Z,89.09
2022-12-17T17:07:03.647Z,89.20
2022-12-17T17:09:31.978Z,89.58
2022-12-17T17:12:00.338Z,89.91
2022-12-17T17:14:28.679Z,90.22
2022-12-17T17:16:56.932Z,90.67
2022-12-17T17:19:25.373Z,90.95
2022-12-17T17:21:55.101Z,90.78
2022-12-17T17:24:25.879Z,90.57
2022-12-17T17:26:55.201Z,90.50
2022-12-17T17:29:23.555Z,90.37
2022-12-17T17:34:40.375Z,90.11
2022-12-17T17:37:10.147Z,90.26
2022-12-17T17:39:38.347Z,89.95
2022-12-17T17:42:06.778Z,90.19
2022-12-17T17:44:35.316Z,89.79
2022-12-17T17:47:04.174Z,89.94
2022-12-17T17:49:32.682Z,89.84
2022-12-17T17:52:09.792Z,89.60
2022-12-17T17:54:40.894Z,89.40
2022-12-17T17:57:10.056Z,89.13
2022-12-17T17:59:39.556Z,89.56
2022-12-17T18:02:08.939Z,90.24
2022-12-17T18:04:37.396Z,89.84
2022-12-17T18:09:55.730Z,89.77
2022-12-17T18:12:41.465Z,89.81
2022-12-17T18:15:18.636Z,89.62
2022-12-17T18:17:50.139Z,90.02
2022-12-17T18:20:18.772Z,89.71
2022-12-17T18:22:47.539Z,90.33
2022-12-17T18:25:17.747Z,90.44
2022-12-17T18:27:46.087Z,90.41
2022-12-17T18:30:16.145Z,90.36
2022-12-17T18:32:44.520Z,90.52
2022-12-17T18:35:12.876Z,90.50
2022-12-17T18:37:41.106Z,90.97
2022-12-17T18:40:09.800Z,90.62
2022-12-17T18:42:56.727Z,91.07
2022-12-17T18:45:25.183Z,90.86
2022-12-17T18:47:53.511Z,91.35
2022-12-17T18:50:21.821Z,91.08
2022-12-17T18:52:50.150Z,91.08
2022-12-17T18:55:18.465Z,91.59
2022-12-17T18:57:48.214Z,91.68
2022-12-17T19:00:17.198Z,91.39
2022-12-17T19:02:46.079Z,91.60
2022-12-17T19:05:14.458Z,91.38
2022-12-17T19:07:43.674Z,91.19
2022-12-17T19:10:15.975Z,91.25
2022-12-17T19:12:45.019Z,91.49
2022-12-17T19:15:17.113Z,91.07
2022-12-17T19:17:50.742Z,91.55
2022-12-17T19:20:19.959Z,91.45
2022-12-17T19:22:48.216Z,91.49
2022-12-17T19:25:16.569Z,91.64
2022-12-17T19:27:44.830Z,91.80
2022-12-17T19:30:13.293Z,91.98
2022-12-17T19:32:43.210Z,91.28
2022-12-17T19:35:11.442Z,91.41
2022-12-17T19:37:39.780Z,91.74
2022-12-17T19:40:08.678Z,91.85
2022-12-17T19:42:37.836Z,91.91
2022-12-17T19:45:06.860Z,91.80
2022-12-17T19:47:35.114Z,91.93
2022-12-17T19:50:05.440Z,91.28
2022-12-17T19:52:33.728Z,92.15
2022-12-17T19:55:02.495Z,91.90
2022-12-17T19:57:31.680Z,91.57
2022-12-17T20:00:00.192Z,91.51
2022-12-17T20:02:32.746Z,91.45
2022-12-17T20:05:01.717Z,91.84
2022-12-17T20:07:31.366Z,91.32
2022-12-17T20:10:00.233Z,91.78
2022-12-17T20:12:28.429Z,91.51
2022-12-17T20:14:56.804Z,91.28
2022-12-17T20:17:25.994Z,91.25
2022-12-17T20:19:56.323Z,91.46
2022-12-17T20:22:26.396Z,92.05
2022-12-17T20:24:56.219Z,91.62
2022-12-17T20:27:24.593Z,91.90
2022-12-17T20:29:53.624Z,91.16
2022-12-17T20:32:21.951Z,91.52
2022-12-17T20:34:50.469Z,91.03
2022-12-17T20:37:18.836Z,91.16
2022-12-17T20:39:47.281Z,90.67
2022-12-17T20:42:18.637Z,90.74
2022-12-17T20:44:53.030Z,90.81
2022-12-17T20:47:21.847Z,91.01
2022-12-17T20:49:50.219Z,90.30
2022-12-17T20:52:18.494Z,90.38
2022-12-17T20:54:46.750Z,90.80
2022-12-17T20:57:14.968Z,90.63
2022-12-17T20:59:44.913Z,90.18
2022-12-17T21:02:13.187Z,90.58
2022-12-17T21:04:41.480Z,90.22
2022-12-17T21:07:09.982Z,90.85
2022-12-17T21:09:38.486Z,90.29
2022-12-17T21:12:07.250Z,90.89
2022-12-17T21:14:36.035Z,90.14
2022-12-17T21:17:06.017Z,90.36
2022-12-17T21:19:34.404Z,90.56
2022-12-17T21:22:02.688Z,90.19
2022-12-17T21:24:31.097Z,90.82
2022-12-17T21:26:59.341Z,90.87
2022-12-17T21:29:27.733Z,90.47
2022-12-17T21:31:56.055Z,90.68
2022-12-17T21:34:29.101Z,90.88
2022-12-17T21:36:57.733Z,90.33
2022-12-17T21:39:25.991Z,90.44
2022-12-17T21:42:12.026Z,90.57
2022-12-17T21:44:40.770Z,90.09
2022-12-17T21:47:09.108Z,90.16
2022-12-17T21:49:38.767Z,90.76
2022-12-17T21:52:08.051Z,90.29
2022-12-17T21:54:38.922Z,90.68
2022-12-17T21:57:07.500Z,90.80
2022-12-17T21:59:35.789Z,90.07
2022-12-17T22:02:04.082Z,90.77
2022-12-17T22:04:32.499Z,90.58
2022-12-17T22:07:04.833Z,90.44
2022-12-17T22:10:03.382Z,90.84
2022-12-17T22:12:47.140Z,90.01
2022-12-17T22:15:17.404Z,90.53
2022-12-17T22:17:46.697Z,90.60
2022-12-17T22:20:16.192Z,90.88
2022-12-17T22:22:45.943Z,90.40
2022-12-17T22:25:14.730Z,90.04
2022-12-17T22:27:43.150Z,89.98
2022-12-17T22:30:31.895Z,90.19
2022-12-17T22:33:00.344Z,90.39
2022-12-17T22:36:45.513Z,90.32
2022-12-17T22:42:29.525Z,90.77
2022-12-17T22:44:29.190Z,90.33
2022-12-17T22:44:42.079Z,90.64
2022-12-17T22:47:06.865Z,89.61
2022-12-17T22:49:35.091Z,89.71
2022-12-17T22:52:03.595Z,89.53
2022-12-17T22:54:33.508Z,89.35
2022-12-17T22:57:34.676Z,89.92
2022-12-17T22:59:50.803Z,89.12
2022-12-17T23:02:19.221Z,89.24
2022-12-17T23:04:48.110Z,89.25
2022-12-17T23:07:16.358Z,89.40
2022-12-17T23:09:46.208Z,89.64
2022-12-17T23:12:31.925Z,89.84
2022-12-17T23:15:00.360Z,89.59
2022-12-17T23:17:28.608Z,88.57
2022-12-17T23:19:56.856Z,89.46
2022-12-17T23:22:25.122Z,89.49
2022-12-17T23:24:54.688Z,88.84
2022-12-17T23:27:23.075Z,89.15
2022-12-17T23:29:51.374Z,89.86
2022-12-17T23:32:19.615Z,89.10
2022-12-17T23:34:47.886Z,89.53
2022-12-17T23:37:16.221Z,89.59
2022-12-17T23:39:44.815Z,90.00
2022-12-17T23:42:14.383Z,90.23
2022-12-17T23:44:42.588Z,89.78
2022-12-17T23:47:10.852Z,89.30
2022-12-17T23:49:39.049Z,89.17
2022-12-17T23:52:07.521Z,88.77
2022-12-17T23:54:37.645Z,89.31
2022-12-17T23:57:05.871Z,88.93
2022-12-17T23:59:35.387Z,89.42
